Time;durP1;ratioP1;P1;durP2;ratioP2;P2;SDS_P1;SDS_P2;PMS_P1;PMS_P2;Temp;Humidity;BMP_temperature;BMP_pressure;BME280_temperature;BME280_humidity;BME280_pressure;Samples;Min_cycle;Max_cycle;Signal;HPM_P1;HPM_P2
2023/10/05 00:03:06;;;;;;;5.80;1.80;;;14.40;99.90;;;;;;5035629;28;20045;-48
2023/10/05 00:05:36;;;;;;;5.72;1.65;;;14.40;99.90;;;;;;5035302;28;20041;-51
2023/10/05 00:08:04;;;;;;;7.72;1.50;;;14.40;99.90;;;;;;5035023;28;20041;-49
2023/10/05 00:10:33;;;;;;;5.50;1.80;;;14.40;99.90;;;;;;5034975;28;20120;-50
2023/10/05 00:13:07;;;;;;;5.88;1.67;;;14.40;99.90;;;;;;5035005;28;20137;-51
2023/10/05 00:15:36;;;;;;;6.00;1.70;;;14.40;99.90;;;;;;5035465;28;20033;-47
2023/10/05 00:18:05;;;;;;;10.00;2.22;;;14.40;99.90;;;;;;5034729;28;20055;-50
2023/10/05 00:20:38;;;;;;;8.77;2.05;;;14.40;99.90;;;;;;5034803;28;20045;-51
2023/10/05 00:23:08;;;;;;;7.80;1.98;;;14.40;99.90;;;;;;5035290;28;20049;-46
2023/10/05 00:25:35;;;;;;;9.75;1.92;;;14.40;99.90;;;;;;5035051;28;20400;-52
2023/10/05 00:28:07;;;;;;;7.07;1.60;;;14.40;99.90;;;;;;5034898;28;20144;-46
2023/10/05 00:30:34;;;;;;;6.50;2.00;;;14.40;99.90;;;;;;5033324;28;20461;-48
2023/10/05 00:33:04;;;;;;;8.82;1.85;;;14.40;99.90;;;;;;5035016;28;20049;-45
2023/10/05 00:35:36;;;;;;;7.03;1.73;;;14.40;99.90;;;;;;5034839;28;20041;-47
2023/10/05 00:38:14;;;;;;;8.27;1.90;;;14.40;99.90;;;;;;5034664;28;20041;-46
2023/10/05 00:40:56;;;;;;;8.75;1.90;;;14.50;99.90;;;;;;5033397;28;20128;-49
2023/10/05 00:45:50;;;;;;;7.30;1.67;;;14.50;99.90;;;;;;5032906;28;20554;-51
2023/10/05 00:48:34;;;;;;;8.45;1.95;;;14.50;99.90;;;;;;5032826;28;20059;-49
2023/10/05 00:51:09;;;;;;;6.85;1.80;;;14.50;99.90;;;;;;5032929;28;20136;-50
2023/10/05 00:53:36;;;;;;;6.47;1.70;;;14.50;99.90;;;;;;5033455;28;20514;-50
2023/10/05 00:56:15;;;;;;;7.50;1.80;;;14.50;99.90;;;;;;5034346;28;20107;-47
2023/10/05 00:58:44;;;;;;;9.20;1.88;;;14.50;99.90;;;;;;5033013;28;20483;-45
2023/10/05 01:01:27;;;;;;;9.18;1.90;;;14.50;99.90;;;;;;5034522;28;20046;-46
2023/10/05 01:09:47;;;;;;;6.68;1.75;;;14.40;99.90;;;;;;5054056;28;20049;-49
2023/10/05 01:12:31;;;;;;;7.63;2.13;;;14.40;99.90;;;;;;5032676;28;20045;-47
2023/10/05 01:14:59;;;;;;;8.70;1.90;;;14.40;99.90;;;;;;5032834;28;20083;-50
2023/10/05 01:17:26;;;;;;;10.55;2.35;;;14.40;99.90;;;;;;5034119;28;20390;-46
2023/10/05 01:19:56;;;;;;;10.82;2.00;;;14.40;99.90;;;;;;5033911;28;20099;-47
2023/10/05 01:22:24;;;;;;;8.95;1.80;;;14.30;99.90;;;;;;5033782;28;20125;-48
2023/10/05 01:24:51;;;;;;;9.65;2.00;;;14.40;99.90;;;;;;5034163;28;20362;-48
2023/10/05 01:27:18;;;;;;;7.57;1.92;;;14.30;99.90;;;;;;5033675;28;20064;-49
2023/10/05 01:29:45;;;;;;;6.13;1.98;;;14.30;99.90;;;;;;5034286;28;20050;-48
2023/10/05 01:32:15;;;;;;;9.98;2.42;;;14.30;99.90;;;;;;5032753;28;20381;-47
2023/10/05 01:34:42;;;;;;;9.25;2.60;;;14.30;99.90;;;;;;5032580;28;20081;-48
2023/10/05 01:37:10;;;;;;;5.72;1.83;;;14.30;99.90;;;;;;5033737;28;20373;-50
2023/10/05 01:39:43;;;;;;;8.57;2.13;;;14.20;99.90;;;;;;5032343;28;20096;-47
2023/10/05 01:42:11;;;;;;;9.25;1.80;;;14.20;99.90;;;;;;5033066;28;20100;-46
2023/10/05 01:44:47;;;;;;;7.55;1.95;;;14.30;99.90;;;;;;5032567;28;20060;-49
2023/10/05 01:47:17;;;;;;;7.82;2.20;;;14.30;99.90;;;;;;5032356;28;20041;-46
2023/10/05 01:49:44;;;;;;;7.13;1.88;;;14.30;99.90;;;;;;5032298;28;20423;-50
2023/10/05 01:52:11;;;;;;;7.53;1.92;;;14.30;99.90;;;;;;5033300;28;20053;-49
2023/10/05 01:54:43;;;;;;;8.10;2.05;;;14.30;99.90;;;;;;5033507;28;20128;-47
2023/10/05 01:57:11;;;;;;;8.82;1.83;;;14.30;99.90;;;;;;5032298;28;20515;-47
2023/10/05 01:59:39;;;;;;;7.70;2.30;;;14.20;99.90;;;;;;5032030;28;20033;-48
2023/10/05 02:02:10;;;;;;;9.52;1.95;;;14.30;99.90;;;;;;5031982;28;20489;-47
2023/10/05 02:04:43;;;;;;;7.85;1.90;;;14.20;99.90;;;;;;5033585;28;20076;-45
2023/10/05 02:07:11;;;;;;;9.63;2.00;;;14.20;99.90;;;;;;5031524;28;20116;-44
2023/10/05 02:09:38;;;;;;;8.90;1.65;;;14.20;99.90;;;;;;5031936;28;20041;-45
2023/10/05 02:12:06;;;;;;;8.65;1.73;;;14.20;99.90;;;;;;5031912;28;20042;-45
2023/10/05 02:14:36;;;;;;;7.82;2.10;;;14.20;99.90;;;;;;5031577;28;20040;-49
2023/10/05 02:17:03;;;;;;;9.38;1.92;;;14.30;99.90;;;;;;5031731;28;20052;-44
2023/10/05 02:19:30;;;;;;;7.22;1.90;;;14.30;99.90;;;;;;5032112;28;20076;-51
2023/10/05 02:22:02;;;;;;;7.00;1.73;;;14.20;99.90;;;;;;5033357;28;20087;-49
2023/10/05 02:24:30;;;;;;;7.68;2.10;;;14.30;99.90;;;;;;5032913;28;20042;-48
2023/10/05 02:27:09;;;;;;;7.65;1.90;;;14.30;99.90;;;;;;5033357;28;20129;-51
2023/10/05 02:29:39;;;;;;;7.97;2.00;;;14.30;99.90;;;;;;5033233;28;20050;-50
2023/10/05 02:32:10;;;;;;;6.38;1.48;;;14.30;99.90;;;;;;5031795;28;20136;-50
2023/10/05 02:37:24;;;;;;;5.75;1.45;;;14.30;99.90;;;;;;5032734;28;20068;-49
2023/10/05 02:39:51;;;;;;;7.15;1.75;;;14.30;99.90;;;;;;5031507;28;20041;-50
2023/10/05 02:42:21;;;;;;;10.20;1.80;;;14.30;99.90;;;;;;5032817;28;20103;-50
2023/10/05 02:44:49;;;;;;;8.65;1.77;;;14.30;99.90;;;;;;5031587;28;20049;-50
2023/10/05 02:47:23;;;;;;;7.43;1.83;;;14.30;99.90;;;;;;5031449;28;20508;-47
2023/10/05 02:49:50;;;;;;;8.00;1.90;;;14.30;99.90;;;;;;5033246;28;20103;-51
2023/10/05 02:52:17;;;;;;;8.00;1.70;;;14.30;99.90;;;;;;5031253;28;20041;-48
2023/10/05 02:54:45;;;;;;;6.63;1.92;;;14.20;99.90;;;;;;5036413;28;20042;-51
2023/10/05 02:57:14;;;;;;;5.65;1.60;;;14.20;99.90;;;;;;5036684;28;20038;-48
2023/10/05 02:59:41;;;;;;;4.90;1.42;;;14.20;99.90;;;;;;5036487;28;20423;-49
2023/10/05 03:02:09;;;;;;;5.60;1.83;;;14.30;99.90;;;;;;5035200;28;20045;-47
2023/10/05 03:04:47;;;;;;;10.10;2.03;;;14.20;99.90;;;;;;5035163;28;20448;-48
2023/10/05 03:07:19;;;;;;;8.18;1.45;;;14.20;99.90;;;;;;5035347;28;20053;-48
2023/10/05 03:09:50;;;;;;;7.07;1.55;;;14.20;99.90;;;;;;5035219;28;20049;-51
2023/10/05 03:12:20;;;;;;;6.72;1.83;;;14.20;99.90;;;;;;5034955;28;20049;-47
2023/10/05 03:14:51;;;;;;;4.35;1.42;;;14.10;99.90;;;;;;5035662;28;20159;-47
2023/10/05 03:17:21;;;;;;;7.95;1.90;;;14.10;99.90;;;;;;5034880;28;20045;-44
2023/10/05 03:19:53;;;;;;;10.00;1.88;;;14.20;99.90;;;;;;5034967;28;20056;-46
2023/10/05 03:22:23;;;;;;;10.18;2.05;;;14.10;99.90;;;;;;5034703;28;20100;-47
2023/10/05 03:24:56;;;;;;;7.25;1.67;;;14.10;99.90;;;;;;5034635;28;20061;-47
2023/10/05 03:27:25;;;;;;;7.18;2.10;;;14.10;99.90;;;;;;5034304;28;20104;-44
2023/10/05 03:29:58;;;;;;;6.80;1.80;;;14.10;99.90;;;;;;5036007;28;20045;-51
2023/10/05 03:32:28;;;;;;;9.25;2.13;;;14.20;99.90;;;;;;5034986;28;20041;-48
2023/10/05 03:34:56;;;;;;;12.27;2.13;;;14.20;99.90;;;;;;5035091;28;20052;-50
2023/10/05 03:37:24;;;;;;;9.05;1.98;;;14.20;99.90;;;;;;5034600;28;20497;-46
2023/10/05 03:42:31;;;;;;;9.82;2.28;;;14.20;99.90;;;;;;5034751;28;20049;-47
2023/10/05 03:45:08;;;;;;;7.93;1.98;;;14.20;99.90;;;;;;5036023;28;20125;-48
2023/10/05 03:47:38;;;;;;;6.15;1.90;;;14.20;99.90;;;;;;5034489;28;20049;-49
2023/10/05 03:50:09;;;;;;;5.25;1.80;;;14.20;99.90;;;;;;5034340;28;20516;-47
2023/10/05 03:52:36;;;;;;;10.15;2.03;;;14.20;99.90;;;;;;5034325;28;20049;-50
2023/10/05 03:55:10;;;;;;;7.05;2.03;;;14.30;99.90;;;;;;5034255;28;20401;-50
2023/10/05 03:57:39;;;;;;;7.28;1.48;;;14.30;99.90;;;;;;5033955;28;20050;-45
2023/10/05 04:03:02;;;;;;;11.10;2.30;;;14.30;99.90;;;;;;5030227;28;20042;-48
2023/10/05 04:05:30;;;;;;;7.25;1.85;;;14.30;99.90;;;;;;5032955;28;20498;-44
2023/10/05 04:08:10;;;;;;;8.80;2.08;;;14.30;99.90;;;;;;5034903;28;20113;-48
2023/10/05 04:10:46;;;;;;;9.30;2.00;;;14.20;99.90;;;;;;5035379;28;20115;-46
2023/10/05 04:13:15;;;;;;;7.90;1.77;;;14.30;99.90;;;;;;5034977;28;20046;-44
2023/10/05 04:15:42;;;;;;;6.05;1.80;;;14.20;99.90;;;;;;5035250;28;20046;-48
2023/10/05 04:18:11;;;;;;;10.75;2.05;;;14.20;99.90;;;;;;5034419;28;20050;-48
2023/10/05 04:20:38;;;;;;;9.32;1.92;;;14.20;99.90;;;;;;5034692;28;20091;-46
2023/10/05 04:23:04;;;;;;;6.55;1.80;;;14.20;99.90;;;;;;5034961;28;20240;-50
2023/10/05 04:25:32;;;;;;;4.57;1.63;;;14.20;99.90;;;;;;5034671;28;20049;-49
2023/10/05 04:28:00;;;;;;;6.97;1.80;;;14.20;99.90;;;;;;5034946;28;20042;-46
2023/10/05 04:30:27;;;;;;;6.45;1.73;;;14.30;99.90;;;;;;5034899;28;20049;-46
2023/10/05 04:32:54;;;;;;;6.20;1.85;;;14.20;99.90;;;;;;5034658;28;20075;-44
2023/10/05 04:35:27;;;;;;;10.38;1.88;;;14.20;99.90;;;;;;5034616;28;20049;-46
2023/10/05 04:37:54;;;;;;;10.25;2.10;;;14.20;99.90;;;;;;5034738;28;20042;-48
2023/10/05 04:40:24;;;;;;;8.13;1.90;;;14.20;99.90;;;;;;5034918;28;20077;-49
2023/10/05 04:42:52;;;;;;;12.40;2.70;;;14.20;99.90;;;;;;5034496;28;20048;-46
2023/10/05 04:45:20;;;;;;;13.52;2.00;;;14.20;99.90;;;;;;5033112;28;20494;-48
2023/10/05 04:47:48;;;;;;;9.90;1.95;;;14.20;99.90;;;;;;5033995;28;20596;-48
2023/10/05 04:50:17;;;;;;;7.78;1.80;;;14.20;99.90;;;;;;5034846;28;20373;-48
2023/10/05 04:52:50;;;;;;;8.10;1.80;;;14.20;99.90;;;;;;5034340;28;20381;-50
2023/10/05 04:55:22;;;;;;;9.75;1.73;;;14.20;99.90;;;;;;5034572;28;20055;-46
2023/10/05 04:57:55;;;;;;;9.80;2.00;;;14.20;99.90;;;;;;5034036;28;20132;-48
2023/10/05 05:03:34;;;;;;;;;;;14.20;99.90;;;;;;5035085;28;20124;-47
2023/10/05 05:08:34;;;;;;;5.15;1.98;;;14.20;99.90;;;;;;5034344;28;20034;-50
2023/10/05 05:11:02;;;;;;;5.68;1.73;;;14.10;99.90;;;;;;5033760;28;20116;-50
2023/10/05 05:13:29;;;;;;;8.15;1.80;;;14.10;99.90;;;;;;5034310;28;20061;-50
2023/10/05 05:15:57;;;;;;;6.93;1.90;;;14.10;99.90;;;;;;5033887;28;20068;-44
2023/10/05 05:18:24;;;;;;;8.63;2.08;;;14.10;99.90;;;;;;5034030;28;20141;-53
2023/10/05 05:20:53;;;;;;;8.80;1.70;;;14.10;99.90;;;;;;5033754;28;20038;-46
2023/10/05 05:23:20;;;;;;;8.55;2.00;;;14.10;99.90;;;;;;5033499;28;20038;-48
2023/10/05 05:25:48;;;;;;;8.00;1.90;;;14.20;99.90;;;;;;5033933;28;20428;-52
2023/10/05 05:28:17;;;;;;;7.30;1.77;;;14.10;99.90;;;;;;5033658;28;20125;-48
2023/10/05 05:30:44;;;;;;;9.45;2.15;;;14.20;99.90;;;;;;5033913;28;20056;-48
2023/10/05 05:33:10;;;;;;;8.80;2.03;;;14.20;99.90;;;;;;5033927;28;20044;-48
2023/10/05 05:35:39;;;;;;;8.65;1.80;;;14.20;99.90;;;;;;5034125;28;20549;-49
2023/10/05 05:38:09;;;;;;;10.82;2.10;;;14.20;99.90;;;;;;5033732;28;20060;-50
2023/10/05 05:40:37;;;;;;;6.35;1.90;;;14.20;99.90;;;;;;5033890;28;20037;-52
2023/10/05 05:43:08;;;;;;;9.85;1.95;;;14.20;99.90;;;;;;5032446;28;20053;-47
2023/10/05 05:45:39;;;;;;;7.28;2.13;;;14.20;99.90;;;;;;5034011;28;20043;-52
2023/10/05 05:48:13;;;;;;;7.07;1.95;;;14.20;99.90;;;;;;5034005;28;20484;-47
2023/10/05 05:50:42;;;;;;;7.82;1.70;;;14.20;99.90;;;;;;5032352;28;20080;-49
2023/10/05 05:53:11;;;;;;;8.57;2.45;;;14.20;99.90;;;;;;5033827;28;20468;-47
2023/10/05 05:55:44;;;;;;;9.13;2.25;;;14.20;99.90;;;;;;5033679;28;20391;-52
2023/10/05 05:58:14;;;;;;;7.75;2.05;;;14.20;99.90;;;;;;5033158;28;20451;-53
2023/10/05 06:00:41;;;;;;;8.73;2.38;;;14.30;99.90;;;;;;5033475;28;20069;-54
2023/10/05 06:03:11;;;;;;;10.68;2.17;;;14.20;99.90;;;;;;5033445;28;20049;-50
2023/10/05 06:05:38;;;;;;;11.23;2.35;;;14.20;99.90;;;;;;5033329;28;20120;-54
2023/10/05 06:08:09;;;;;;;11.25;2.08;;;14.20;99.90;;;;;;5032882;28;20473;-46
2023/10/05 06:10:36;;;;;;;8.45;1.90;;;14.20;99.90;;;;;;5033335;28;20392;-49
2023/10/05 06:13:03;;;;;;;10.25;2.22;;;14.20;99.90;;;;;;5033401;28;20128;-49
2023/10/05 06:15:30;;;;;;;9.13;1.92;;;14.20;99.90;;;;;;5033148;28;20042;-46
2023/10/05 06:17:59;;;;;;;8.88;2.03;;;14.20;99.90;;;;;;5031641;28;20037;-46
2023/10/05 06:20:26;;;;;;;7.75;1.80;;;14.20;99.90;;;;;;5033472;28;20054;-46
2023/10/05 06:22:53;;;;;;;8.23;1.95;;;14.10;99.90;;;;;;5033116;28;20045;-46
2023/10/05 06:25:20;;;;;;;11.68;2.35;;;14.10;99.90;;;;;;5033056;28;20128;-47
2023/10/05 06:27:51;;;;;;;10.60;2.22;;;14.10;99.90;;;;;;5032728;28;20089;-49
2023/10/05 06:30:20;;;;;;;10.70;2.28;;;14.10;99.90;;;;;;5036111;28;20128;-46
2023/10/05 06:32:48;;;;;;;6.50;1.83;;;14.20;99.90;;;;;;5035523;28;20081;-51
2023/10/05 06:35:15;;;;;;;7.82;2.08;;;14.20;99.90;;;;;;5036054;28;20140;-45
2023/10/05 06:37:42;;;;;;;7.10;1.95;;;14.10;99.90;;;;;;5036745;28;20535;-51
2023/10/05 06:40:12;;;;;;;8.05;1.90;;;14.20;99.90;;;;;;5036040;28;20092;-48
2023/10/05 06:42:41;;;;;;;13.80;1.92;;;14.20;99.90;;;;;;5036866;28;20083;-53
2023/10/05 06:45:08;;;;;;;10.25;1.92;;;14.20;99.90;;;;;;5037067;28;20060;-48
2023/10/05 06:47:38;;;;;;;14.20;2.88;;;14.20;99.90;;;;;;5036463;28;20099;-46
2023/10/05 06:50:08;;;;;;;7.95;2.15;;;14.20;99.90;;;;;;5036623;28;20408;-50
2023/10/05 06:52:36;;;;;;;10.30;2.65;;;14.20;99.90;;;;;;5036684;28;20077;-44
2023/10/05 06:55:07;;;;;;;7.22;2.08;;;14.20;99.90;;;;;;5037010;28;20045;-48
2023/10/05 06:57:35;;;;;;;11.68;2.28;;;14.20;99.90;;;;;;5036627;28;20507;-46
2023/10/05 07:00:02;;;;;;;6.10;1.83;;;14.20;99.90;;;;;;5036799;28;20037;-46
2023/10/05 07:02:29;;;;;;;6.85;1.90;;;14.30;99.90;;;;;;5034898;28;20361;-45
2023/10/05 07:04:56;;;;;;;9.68;2.05;;;14.20;99.90;;;;;;5036230;28;20045;-46
2023/10/05 07:07:23;;;;;;;7.18;2.00;;;14.30;99.90;;;;;;5036284;28;20503;-47
2023/10/05 07:09:51;;;;;;;8.13;2.25;;;14.30;99.90;;;;;;5035265;28;20136;-45
2023/10/05 07:12:18;;;;;;;9.32;2.13;;;14.30;99.90;;;;;;5036319;28;20033;-48
2023/10/05 07:14:44;;;;;;;7.65;1.77;;;14.30;99.90;;;;;;5036018;28;20042;-47
2023/10/05 07:17:11;;;;;;;8.23;2.22;;;14.20;99.90;;;;;;5035138;28;20091;-47
2023/10/05 07:19:38;;;;;;;8.60;2.50;;;14.20;99.90;;;;;;5036468;28;20042;-47
2023/10/05 07:22:05;;;;;;;7.05;2.05;;;14.20;99.90;;;;;;5035782;28;20453;-53
2023/10/05 07:24:32;;;;;;;9.13;2.25;;;14.20;99.90;;;;;;5035820;28;20404;-53
2023/10/05 07:26:59;;;;;;;10.05;2.45;;;14.20;99.90;;;;;;5035490;28;20466;-50
2023/10/05 07:29:25;;;;;;;7.80;1.77;;;14.20;99.90;;;;;;5035802;28;20045;-48
2023/10/05 07:31:57;;;;;;;7.65;2.63;;;14.20;99.90;;;;;;5036099;28;20080;-51
2023/10/05 07:34:24;;;;;;;8.38;2.38;;;14.30;99.90;;;;;;5036066;28;20038;-44
2023/10/05 07:36:51;;;;;;;10.60;2.20;;;14.30;99.90;;;;;;5035537;28;20057;-47
2023/10/05 07:39:18;;;;;;;8.10;2.25;;;14.40;99.90;;;;;;5035384;28;20040;-47
2023/10/05 07:41:47;;;;;;;8.15;2.25;;;14.40;99.90;;;;;;5035221;28;20045;-47
2023/10/05 07:44:14;;;;;;;10.25;2.03;;;14.50;99.90;;;;;;5035976;28;20037;-48
2023/10/05 07:46:40;;;;;;;11.25;2.60;;;14.60;99.90;;;;;;5035848;28;20045;-50
2023/10/05 07:49:08;;;;;;;10.40;1.92;;;14.70;99.90;;;;;;5036124;28;20124;-52
2023/10/05 07:51:36;;;;;;;10.07;1.90;;;14.80;99.90;;;;;;5035498;28;20054;-46
2023/10/05 07:54:03;;;;;;;13.13;2.20;;;14.90;99.90;;;;;;5034568;28;20076;-54
2023/10/05 07:56:32;;;;;;;8.30;2.38;;;15.00;99.90;;;;;;5034556;28;20807;-49
2023/10/05 07:58:59;;;;;;;9.80;2.47;;;15.00;99.90;;;;;;5034982;28;20049;-50
2023/10/05 08:01:26;;;;;;;9.27;1.98;;;15.10;99.90;;;;;;5035031;28;20139;-48
2023/10/05 08:03:53;;;;;;;7.72;1.80;;;15.20;99.90;;;;;;5034850;28;20496;-45
2023/10/05 08:06:20;;;;;;;10.68;2.45;;;15.20;99.90;;;;;;5034765;28;20227;-50
2023/10/05 08:08:47;;;;;;;7.25;2.08;;;15.20;99.90;;;;;;5035153;28;20107;-49
2023/10/05 08:11:15;;;;;;;9.02;2.40;;;15.30;99.90;;;;;;5035071;28;20107;-50
2023/10/05 08:13:43;;;;;;;12.80;2.70;;;15.40;99.90;;;;;;5035335;28;20037;-46
2023/10/05 08:16:10;;;;;;;10.68;2.35;;;15.40;99.90;;;;;;5034970;28;20154;-47
2023/10/05 08:18:36;;;;;;;10.50;2.13;;;15.50;99.90;;;;;;5035327;28;20099;-44
2023/10/05 08:21:04;;;;;;;9.68;2.20;;;15.50;99.90;;;;;;5034026;28;20488;-46
2023/10/05 08:23:31;;;;;;;10.18;2.30;;;15.50;99.90;;;;;;5035283;28;20056;-44
2023/10/05 08:25:57;;;;;;;9.25;2.10;;;15.60;99.90;;;;;;5035014;28;20041;-44
2023/10/05 08:28:24;;;;;;;10.63;2.70;;;15.70;99.90;;;;;;5034798;28;20416;-45
2023/10/05 08:31:05;;;;;;;14.63;2.55;;;15.70;99.90;;;;;;5034732;28;20120;-53
2023/10/05 08:33:35;;;;;;;9.38;2.45;;;15.80;99.90;;;;;;5034731;28;20120;-47
2023/10/05 08:36:06;;;;;;;9.90;2.75;;;15.80;99.90;;;;;;5035020;28;20551;-51
2023/10/05 08:38:33;;;;;;;8.73;2.15;;;15.80;99.90;;;;;;5034658;28;20451;-46
2023/10/05 08:41:06;;;;;;;11.52;2.17;;;15.80;99.90;;;;;;5034274;28;20041;-47
2023/10/05 08:43:35;;;;;;;13.82;2.67;;;15.90;99.90;;;;;;5034584;28;20041;-47
2023/10/05 08:46:03;;;;;;;10.43;2.55;;;16.00;99.90;;;;;;5034412;28;20095;-44
2023/10/05 08:48:35;;;;;;;9.00;2.03;;;16.00;99.90;;;;;;5032850;28;20388;-50
2023/10/05 08:51:10;;;;;;;8.73;2.28;;;16.10;99.90;;;;;;5034333;28;20139;-47
2023/10/05 08:53:50;;;;;;;9.52;2.40;;;16.20;99.90;;;;;;5034810;28;20041;-47
2023/10/05 08:56:17;;;;;;;9.77;2.72;;;16.20;99.90;;;;;;5034634;28;20112;-47
2023/10/05 08:58:47;;;;;;;7.05;2.42;;;16.20;99.90;;;;;;5033131;28;20041;-48
2023/10/05 09:01:14;;;;;;;8.02;2.33;;;16.30;99.90;;;;;;5034556;28;20431;-51
2023/10/05 09:03:43;;;;;;;8.95;2.22;;;16.30;99.90;;;;;;5034446;28;20065;-49
2023/10/05 09:06:13;;;;;;;12.23;2.03;;;16.30;99.90;;;;;;5034386;28;20044;-48
2023/10/05 09:08:40;;;;;;;7.90;2.42;;;16.30;99.90;;;;;;5034020;28;20053;-49
2023/10/05 09:11:09;;;;;;;10.23;2.40;;;16.30;99.90;;;;;;5034178;28;20041;-46
2023/10/05 09:13:35;;;;;;;9.88;2.08;;;16.30;99.90;;;;;;5034201;28;20045;-49
2023/10/05 09:16:06;;;;;;;8.70;1.95;;;16.40;99.90;;;;;;5034600;28;20049;-48
2023/10/05 09:18:33;;;;;;;9.65;2.33;;;16.30;99.90;;;;;;5034065;28;20061;-49
2023/10/05 09:21:03;;;;;;;9.13;2.50;;;16.30;99.90;;;;;;5033152;28;20080;-47
2023/10/05 09:23:30;;;;;;;9.18;2.17;;;16.30;99.90;;;;;;5034164;28;20051;-47
2023/10/05 09:25:57;;;;;;;7.63;2.15;;;16.40;99.90;;;;;;5033812;28;20385;-48
2023/10/05 09:28:28;;;;;;;9.45;2.20;;;16.50;99.90;;;;;;5033937;28;20116;-46
2023/10/05 09:30:55;;;;;;;10.60;2.10;;;16.50;99.90;;;;;;5033609;28;20049;-47
2023/10/05 09:33:25;;;;;;;9.35;2.50;;;16.60;99.90;;;;;;5033763;28;20038;-45
2023/10/05 09:35:52;;;;;;;8.43;2.28;;;16.70;99.90;;;;;;5033945;28;20041;-50
2023/10/05 09:38:22;;;;;;;6.82;2.15;;;16.70;99.90;;;;;;5033903;28;20103;-53
2023/10/05 09:40:49;;;;;;;10.35;2.75;;;16.70;99.90;;;;;;5033723;28;20037;-47
2023/10/05 09:43:21;;;;;;;7.38;2.15;;;16.80;99.90;;;;;;5033833;28;20531;-48
2023/10/05 09:45:48;;;;;;;6.90;2.05;;;16.90;99.90;;;;;;5033788;28;20045;-51
2023/10/05 09:48:16;;;;;;;8.20;2.17;;;17.00;99.90;;;;;;5033514;28;20484;-50
2023/10/05 09:50:43;;;;;;;7.70;2.28;;;16.90;99.90;;;;;;5033644;28;20049;-48
2023/10/05 09:53:11;;;;;;;8.52;2.20;;;17.00;99.90;;;;;;5033233;28;20045;-48
2023/10/05 09:55:40;;;;;;;9.73;2.70;;;17.00;99.90;;;;;;5033517;28;20045;-52
2023/10/05 09:58:12;;;;;;;8.75;2.10;;;16.90;99.90;;;;;;5033611;28;20045;-46
2023/10/05 10:03:06;;;;;;;24.40;3.35;;;17.10;99.90;;;;;;5032683;28;20041;-44
2023/10/05 10:05:35;;;;;;;13.43;2.72;;;17.10;99.90;;;;;;5033225;28;20428;-44
2023/10/05 10:08:09;;;;;;;9.77;2.45;;;17.10;99.90;;;;;;5031392;28;20067;-46
2023/10/05 10:10:40;;;;;;;60.30;6.47;;;17.20;99.90;;;;;;5033379;28;20400;-48
2023/10/05 10:13:12;;;;;;;9.43;2.17;;;17.30;99.90;;;;;;5033357;28;20041;-48
2023/10/05 10:15:39;;;;;;;9.43;2.47;;;17.40;99.90;;;;;;5033511;28;20045;-50
2023/10/05 10:18:09;;;;;;;9.02;2.03;;;17.50;99.90;;;;;;5032861;28;20042;-49
2023/10/05 10:20:36;;;;;;;9.65;2.30;;;17.60;99.90;;;;;;5033449;28;20096;-47
2023/10/05 10:23:05;;;;;;;6.07;2.08;;;17.70;99.90;;;;;;5033268;28;20049;-54
2023/10/05 10:25:32;;;;;;;38.30;4.18;;;17.70;99.90;;;;;;5033018;28;20068;-50
2023/10/05 10:28:02;;;;;;;8.88;1.90;;;17.80;99.90;;;;;;5032976;28;20045;-50
2023/10/05 10:30:36;;;;;;;10.32;2.20;;;17.80;99.90;;;;;;5033577;28;20371;-51
2023/10/05 10:33:03;;;;;;;39.05;4.90;;;17.90;99.90;;;;;;5032924;28;20037;-46
2023/10/05 10:35:29;;;;;;;8.63;2.30;;;17.90;99.90;;;;;;5033023;28;20037;-46
2023/10/05 10:37:59;;;;;;;9.70;2.85;;;17.90;99.90;;;;;;5032819;28;20037;-51
2023/10/05 10:40:27;;;;;;;8.63;2.10;;;17.90;99.90;;;;;;5033001;28;20131;-48
2023/10/05 10:45:32;;;;;;;7.57;1.83;;;17.90;99.90;;;;;;5031803;28;20050;-52
2023/10/05 10:47:59;;;;;;;5.65;2.00;;;17.90;99.90;;;;;;5032879;28;20068;-49
2023/10/05 10:50:31;;;;;;;7.57;2.00;;;17.90;99.90;;;;;;5031928;28;20124;-48
2023/10/05 10:52:58;;;;;;;5.55;1.88;;;18.00;99.90;;;;;;5032597;28;20331;-53
2023/10/05 10:55:25;;;;;;;9.52;2.20;;;18.00;99.90;;;;;;5032924;28;20060;-51
2023/10/05 10:57:56;;;;;;;6.05;2.05;;;18.10;99.90;;;;;;5032810;28;20046;-52
2023/10/05 11:03:15;;;;;;;10.32;2.45;;;18.10;99.90;;;;;;5032899;28;20440;-45
2023/10/05 11:05:43;;;;;;;8.77;2.63;;;18.10;99.90;;;;;;5032159;28;20088;-48
2023/10/05 11:08:11;;;;;;;6.97;2.03;;;18.10;99.90;;;;;;5032330;28;20049;-47
2023/10/05 11:10:40;;;;;;;10.07;2.13;;;18.10;99.90;;;;;;5032687;28;20054;-57
2023/10/05 11:13:19;;;;;;;6.95;2.20;;;18.20;99.90;;;;;;5031341;28;20069;-45
2023/10/05 11:15:46;;;;;;;14.35;2.40;;;18.30;99.90;;;;;;5035809;28;20489;-50
2023/10/05 11:18:18;;;;;;;5.00;1.67;;;18.30;99.90;;;;;;5035938;28;20133;-46
2023/10/05 11:20:52;;;;;;;4.65;1.77;;;18.30;99.90;;;;;;5036225;28;20506;-47
2023/10/05 11:23:25;;;;;;;8.00;1.70;;;18.30;99.90;;;;;;5036811;28;20084;-47
2023/10/05 11:25:52;;;;;;;7.57;1.83;;;18.20;99.90;;;;;;5036657;28;20076;-46
2023/10/05 11:28:35;;;;;;;5.93;2.03;;;18.20;99.90;;;;;;5035865;28;20075;-51
2023/10/05 11:31:03;;;;;;;7.07;2.17;;;18.20;99.90;;;;;;5035768;28;20045;-51
2023/10/05 11:33:53;;;;;;;7.50;2.28;;;18.20;99.90;;;;;;5034760;28;20037;-50
2023/10/05 11:36:42;;;;;;;8.05;1.95;;;18.20;99.90;;;;;;5036109;28;20046;-45
2023/10/05 11:39:20;;;;;;;5.93;2.05;;;18.20;99.90;;;;;;5035611;28;20120;-46
2023/10/05 11:41:48;;;;;;;6.85;2.08;;;18.20;99.90;;;;;;5035885;28;20346;-49
2023/10/05 11:44:15;;;;;;;8.27;2.30;;;18.10;99.90;;;;;;5035824;28;20037;-48
2023/10/05 11:46:42;;;;;;;7.20;1.85;;;18.10;99.90;;;;;;5035669;28;20477;-47
2023/10/05 11:49:10;;;;;;;7.25;1.95;;;18.00;99.90;;;;;;5036053;28;20064;-46
2023/10/05 11:51:56;;;;;;;11.07;1.98;;;18.00;99.90;;;;;;5035662;28;20064;-45
2023/10/05 11:54:29;;;;;;;6.20;2.10;;;18.00;99.90;;;;;;5034601;28;20389;-47
2023/10/05 11:56:56;;;;;;;7.55;1.98;;;17.90;99.90;;;;;;5034108;28;20463;-47
2023/10/05 11:59:26;;;;;;;68.22;6.47;;;17.80;99.90;;;;;;5034485;28;20136;-49
2023/10/05 12:01:53;;;;;;;8.52;2.53;;;17.80;99.90;;;;;;5035679;28;20033;-48
2023/10/05 12:04:20;;;;;;;9.75;2.15;;;17.80;99.90;;;;;;5035732;28;20047;-48
2023/10/05 12:06:58;;;;;;;6.72;2.13;;;17.80;99.90;;;;;;5035168;28;20048;-50
2023/10/05 12:09:28;;;;;;;7.47;2.30;;;17.90;99.90;;;;;;5035750;28;20080;-49
2023/10/05 12:11:54;;;;;;;5.32;1.85;;;18.00;99.90;;;;;;5035374;28;20560;-50
2023/10/05 12:14:21;;;;;;;6.03;1.67;;;18.10;99.90;;;;;;5035287;28;20052;-48
2023/10/05 12:16:48;;;;;;;6.95;2.20;;;18.20;99.90;;;;;;5035415;28;20467;-49
2023/10/05 12:19:16;;;;;;;7.57;2.15;;;18.30;99.90;;;;;;5035260;28;20104;-46
2023/10/05 12:21:43;;;;;;;5.18;2.13;;;18.20;99.90;;;;;;5035204;28;20045;-45
2023/10/05 12:24:13;;;;;;;9.00;2.20;;;18.20;99.90;;;;;;5035455;28;20053;-45
2023/10/05 12:26:43;;;;;;;6.80;2.10;;;18.30;99.90;;;;;;5034183;28;20373;-46
2023/10/05 12:29:14;;;;;;;7.03;2.17;;;18.30;99.90;;;;;;5034801;28;20136;-46
2023/10/05 12:31:41;;;;;;;5.22;1.90;;;18.40;99.90;;;;;;5035089;28;20037;-48
2023/10/05 12:34:09;;;;;;;5.55;2.22;;;18.40;99.90;;;;;;5033919;28;20475;-45
2023/10/05 12:36:54;;;;;;;8.98;2.00;;;18.50;99.90;;;;;;5035113;28;20037;-47
2023/10/05 12:39:20;;;;;;;7.32;2.50;;;18.60;99.90;;;;;;5034857;28;20091;-48
2023/10/05 12:41:47;;;;;;;5.50;2.10;;;18.70;99.90;;;;;;5035056;28;20053;-48
2023/10/05 12:44:14;;;;;;;4.47;2.10;;;18.80;99.90;;;;;;5033879;28;20049;-45
2023/10/05 12:46:41;;;;;;;8.90;2.80;;;19.00;99.90;;;;;;5034324;28;20045;-49
2023/10/05 12:49:08;;;;;;;5.07;1.80;;;19.10;99.90;;;;;;5033240;28;20053;-45
2023/10/05 12:51:36;;;;;;;7.53;2.15;;;19.20;99.90;;;;;;5034373;28;20108;-49
2023/10/05 12:54:08;;;;;;;5.60;2.17;;;19.30;99.90;;;;;;5034624;28;20485;-47
2023/10/05 12:56:35;;;;;;;6.60;2.28;;;19.50;99.90;;;;;;5034846;28;20037;-49
2023/10/05 12:59:03;;;;;;;8.57;2.15;;;19.60;99.90;;;;;;5034604;28;20038;-45
2023/10/05 13:01:30;;;;;;;6.47;2.30;;;19.60;99.90;;;;;;5034364;28;20441;-46
2023/10/05 13:03:58;;;;;;;36.03;3.95;;;19.60;99.90;;;;;;5034112;28;20044;-45
2023/10/05 13:06:25;;;;;;;7.60;1.90;;;19.50;99.90;;;;;;5034154;28;20056;-50
2023/10/05 13:08:53;;;;;;;7.15;2.10;;;19.40;99.90;;;;;;5034429;28;20042;-48
2023/10/05 13:11:20;;;;;;;7.20;2.03;;;19.40;99.90;;;;;;5034476;28;20053;-46
2023/10/05 13:13:47;;;;;;;6.93;2.10;;;19.40;99.90;;;;;;5016763;28;20358;-50
2023/10/05 13:16:14;;;;;;;9.88;2.58;;;19.50;99.90;;;;;;5034018;28;20055;-47
2023/10/05 13:18:42;;;;;;;4.78;1.85;;;19.60;99.90;;;;;;5032880;28;20034;-45
2023/10/05 13:21:14;;;;;;;5.68;1.80;;;19.60;99.90;;;;;;5034412;28;20420;-44
2023/10/05 13:23:41;;;;;;;5.10;2.13;;;19.70;99.90;;;;;;5033398;28;20484;-51
2023/10/05 13:26:08;;;;;;;6.18;2.13;;;19.60;99.80;;;;;;5033938;28;20376;-52
2023/10/05 13:28:35;;;;;;;7.45;2.20;;;19.60;99.90;;;;;;5034101;28;20389;-46